createdAt,value
2023-04-16T00:01:07.663Z,68.81
2023-04-16T00:03:34.919Z,69.40
2023-04-16T00:06:02.039Z,69.43
2023-04-16T00:08:28.970Z,69.30
2023-04-16T00:10:56.196Z,69.05
2023-04-16T00:13:23.146Z,69.17
2023-04-16T00:15:50.116Z,69.73
2023-04-16T00:18:17.011Z,69.44
2023-04-16T00:20:43.946Z,69.59
2023-04-16T00:23:10.864Z,69.05
2023-04-16T00:25:37.792Z,69.45
2023-04-16T00:28:06.008Z,69.79
2023-04-16T00:30:32.937Z,69.54
2023-04-16T00:32:59.955Z,70.00
2023-04-16T00:35:27.287Z,68.80
2023-04-16T00:37:54.228Z,69.05
2023-04-16T00:40:21.205Z,69.62
2023-04-16T00:42:48.176Z,69.91
2023-04-16T00:45:15.147Z,69.28
2023-04-16T00:47:42.371Z,69.28
2023-04-16T00:50:11.624Z,69.36
2023-04-16T00:52:39.813Z,69.32
2023-04-16T00:55:08.090Z,69.52
2023-04-16T00:57:35.082Z,69.42
2023-04-16T01:00:03.007Z,69.53
2023-04-16T01:02:30.396Z,69.73
2023-04-16T01:04:57.540Z,69.92
2023-04-16T01:07:24.496Z,69.66
2023-04-16T01:09:51.440Z,69.42
2023-04-16T01:12:18.407Z,70.11
2023-04-16T01:14:45.487Z,69.83
2023-04-16T01:17:12.420Z,69.68
2023-04-16T01:19:39.472Z,69.72
2023-04-16T01:22:06.508Z,69.48
2023-04-16T01:24:36.421Z,69.31
2023-04-16T01:27:03.470Z,69.95
2023-04-16T01:29:30.698Z,69.67
2023-04-16T01:31:59.260Z,69.58
2023-04-16T01:34:29.749Z,69.68
2023-04-16T01:36:56.829Z,69.54
2023-04-16T01:39:23.831Z,69.80
2023-04-16T01:41:50.774Z,69.85
2023-04-16T01:44:17.925Z,69.95
2023-04-16T01:46:45.272Z,69.51
2023-04-16T01:49:12.362Z,70.21
2023-04-16T01:51:39.349Z,69.79
2023-04-16T01:54:06.286Z,70.23
2023-04-16T01:56:33.343Z,69.93
2023-04-16T01:59:00.432Z,69.91
2023-04-16T02:01:32.993Z,70.43
2023-04-16T02:04:00.578Z,70.48
2023-04-16T02:06:27.576Z,70.41
2023-04-16T02:08:54.501Z,70.78
2023-04-16T02:11:21.585Z,70.56
2023-04-16T02:13:49.884Z,70.32
2023-04-16T02:16:18.331Z,70.99
2023-04-16T02:18:50.304Z,70.78
2023-04-16T02:21:20.245Z,70.60
2023-04-16T02:23:51.393Z,71.37
2023-04-16T02:26:21.646Z,70.85
2023-04-16T02:28:49.825Z,70.65
2023-04-16T02:31:19.491Z,71.09
2023-04-16T02:33:47.819Z,71.64
2023-04-16T02:36:15.479Z,71.69
2023-04-16T02:38:42.448Z,71.03
2023-04-16T02:41:09.495Z,71.25
2023-04-16T02:43:36.423Z,70.83
2023-04-16T02:46:04.552Z,71.21
2023-04-16T02:48:32.087Z,71.00
2023-04-16T02:50:59.090Z,71.08
2023-04-16T02:53:26.119Z,71.60
2023-04-16T02:55:55.206Z,70.71
2023-04-16T02:58:25.260Z,70.84
2023-04-16T03:00:53.752Z,71.47
2023-04-16T03:03:21.793Z,70.65
2023-04-16T03:05:48.916Z,71.43
2023-04-16T03:08:16.842Z,71.10
2023-04-16T03:10:43.817Z,71.29
2023-04-16T03:13:10.743Z,71.17
2023-04-16T03:15:38.051Z,71.53
2023-04-16T03:18:05.033Z,71.29
2023-04-16T03:20:32.127Z,71.09
2023-04-16T03:22:59.063Z,71.58
2023-04-16T03:25:25.989Z,71.29
2023-04-16T03:27:52.973Z,71.37
2023-04-16T03:30:19.920Z,71.07
2023-04-16T03:32:47.138Z,71.43
2023-04-16T03:35:14.222Z,71.80
2023-04-16T03:37:41.973Z,71.76
2023-04-16T03:40:09.437Z,71.54
2023-04-16T03:42:36.604Z,71.75
2023-04-16T03:45:03.900Z,71.20
2023-04-16T03:47:31.870Z,71.14
2023-04-16T03:50:02.104Z,71.50
2023-04-16T03:52:29.213Z,71.60
2023-04-16T03:54:56.679Z,71.12
2023-04-16T03:57:27.026Z,71.98
2023-04-16T03:59:57.949Z,69.55
2023-04-16T04:02:27.398Z,71.43
2023-04-16T04:04:54.582Z,71.75
2023-04-16T04:07:21.603Z,71.47
2023-04-16T04:09:48.571Z,72.52
2023-04-16T04:12:15.925Z,71.24
2023-04-16T04:14:44.273Z,71.31
2023-04-16T04:17:11.236Z,71.41
2023-04-16T04:19:42.290Z,71.96
2023-04-16T04:22:14.342Z,72.22
2023-04-16T04:24:41.334Z,72.66
2023-04-16T04:27:08.296Z,71.85
2023-04-16T04:29:35.341Z,71.77
2023-04-16T04:32:02.337Z,72.22
2023-04-16T04:34:29.490Z,71.93
2023-04-16T04:36:59.594Z,71.67
2023-04-16T04:39:28.035Z,72.09
2023-04-16T04:41:55.052Z,72.99
2023-04-16T04:44:22.204Z,72.75
2023-04-16T04:46:49.152Z,72.53
2023-04-16T04:49:16.254Z,72.79
2023-04-16T04:51:43.237Z,72.43
2023-04-16T04:54:10.161Z,72.41
2023-04-16T04:56:37.125Z,72.89
2023-04-16T04:59:04.519Z,72.39
2023-04-16T05:01:31.500Z,71.82
2023-04-16T05:03:58.528Z,72.05
2023-04-16T05:06:26.792Z,72.04
2023-04-16T05:08:54.654Z,71.84
2023-04-16T05:11:21.670Z,71.36
2023-04-16T05:13:48.590Z,72.28
2023-04-16T05:16:15.695Z,72.48
2023-04-16T05:18:42.663Z,72.34
2023-04-16T05:21:09.594Z,72.17
2023-04-16T05:23:36.550Z,72.50
2023-04-16T05:26:03.490Z,72.37
2023-04-16T05:28:31.006Z,71.99
2023-04-16T05:30:57.990Z,72.44
2023-04-16T05:33:25.144Z,71.95
2023-04-16T05:35:52.056Z,72.33
2023-04-16T05:38:18.998Z,72.36
2023-04-16T05:40:46.063Z,72.67
2023-04-16T05:43:13.014Z,72.47
2023-04-16T05:45:41.306Z,72.20
2023-04-16T05:48:11.795Z,72.47
2023-04-16T05:50:38.790Z,72.20
2023-04-16T05:53:08.047Z,71.80
2023-04-16T05:55:36.850Z,72.29
2023-04-16T05:58:06.618Z,72.38
2023-04-16T06:00:33.711Z,71.77
2023-04-16T06:03:01.085Z,72.37
2023-04-16T06:05:31.008Z,72.09
2023-04-16T06:07:57.974Z,72.52
2023-04-16T06:10:24.927Z,72.21
2023-04-16T06:12:51.879Z,72.32
2023-04-16T06:15:18.929Z,72.65
2023-04-16T06:17:45.962Z,72.45
2023-04-16T06:20:13.295Z,72.53
2023-04-16T06:22:40.376Z,72.48
2023-04-16T06:25:07.861Z,72.41
2023-04-16T06:27:34.796Z,72.39
2023-04-16T06:30:01.776Z,72.66
2023-04-16T06:32:28.849Z,73.13
2023-04-16T06:34:56.369Z,72.64
2023-04-16T06:37:23.310Z,73.08
2023-04-16T06:39:50.239Z,73.38
2023-04-16T06:42:17.552Z,73.04
2023-04-16T06:44:44.520Z,72.80
2023-04-16T06:47:11.633Z,73.11
2023-04-16T06:49:39.825Z,73.39
2023-04-16T06:52:06.799Z,73.64
2023-04-16T06:54:34.100Z,73.77
2023-04-16T06:57:01.033Z,73.93
2023-04-16T06:59:27.948Z,73.43
2023-04-16T07:01:55.027Z,73.39
2023-04-16T07:04:22.038Z,74.19
2023-04-16T07:06:49.001Z,73.53
2023-04-16T07:09:17.706Z,73.89
2023-04-16T07:11:45.025Z,75.02
2023-04-16T07:14:12.058Z,74.52
2023-04-16T07:16:39.004Z,73.90
2023-04-16T07:19:06.105Z,74.48
2023-04-16T07:21:33.230Z,74.98
2023-04-16T07:24:00.832Z,74.17
2023-04-16T07:26:27.747Z,73.93
2023-04-16T07:28:54.672Z,74.76
2023-04-16T07:31:21.693Z,74.32
2023-04-16T07:33:48.758Z,74.78
2023-04-16T07:36:15.697Z,74.21
2023-04-16T07:38:42.698Z,74.42
2023-04-16T07:41:09.710Z,74.02
2023-04-16T07:43:36.975Z,74.50
2023-04-16T07:46:04.060Z,74.48
2023-04-16T07:48:31.081Z,75.32
2023-04-16T07:50:58.143Z,75.36
2023-04-16T07:53:25.233Z,74.64
2023-04-16T07:55:52.148Z,75.32
2023-04-16T07:58:19.104Z,75.55
2023-04-16T08:00:46.290Z,75.46
2023-04-16T08:03:13.438Z,74.86
2023-04-16T08:05:40.592Z,75.28
2023-04-16T08:08:07.497Z,74.63
2023-04-16T08:10:34.584Z,75.59
2023-04-16T08:13:02.066Z,75.38
2023-04-16T08:15:29.241Z,75.12
2023-04-16T08:17:56.378Z,75.29
2023-04-16T08:20:23.426Z,74.89
2023-04-16T08:22:50.447Z,74.78
2023-04-16T08:25:20.464Z,74.73
2023-04-16T08:27:47.444Z,75.34
2023-04-16T08:30:17.493Z,75.36
2023-04-16T08:32:44.558Z,74.99
2023-04-16T08:35:11.668Z,75.72
2023-04-16T08:37:38.820Z,74.89
2023-04-16T08:40:06.847Z,75.22
2023-04-16T08:42:40.624Z,74.21
2023-04-16T08:45:15.563Z,74.05
2023-04-16T08:47:51.536Z,74.10
2023-04-16T08:50:25.398Z,74.12
2023-04-16T08:52:58.149Z,74.09
2023-04-16T08:55:43.717Z,73.18
2023-04-16T08:58:22.882Z,73.52
2023-04-16T09:00:50.423Z,74.52
2023-04-16T09:03:19.638Z,74.33
2023-04-16T09:05:48.007Z,74.41
2023-04-16T09:08:15.090Z,74.76
2023-04-16T09:10:43.596Z,74.70
2023-04-16T09:13:11.634Z,74.69
2023-04-16T09:15:39.719Z,75.27
2023-04-16T09:18:06.717Z,74.99
2023-04-16T09:20:33.682Z,75.25
2023-04-16T09:23:00.590Z,75.48
2023-04-16T09:25:28.136Z,75.41
2023-04-16T09:27:55.496Z,76.27
2023-04-16T09:30:27.416Z,75.97
2023-04-16T09:33:23.344Z,75.97
2023-04-16T09:35:53.298Z,76.04
2023-04-16T09:38:21.258Z,75.69
2023-04-16T09:40:48.567Z,75.51
2023-04-16T09:43:18.563Z,75.70
2023-04-16T09:45:55.693Z,75.98
2023-04-16T09:48:33.794Z,75.37
2023-04-16T09:51:01.840Z,75.75
2023-04-16T09:53:31.191Z,76.15
2023-04-16T09:56:04.784Z,76.35
2023-04-16T09:58:32.606Z,76.63
2023-04-16T10:01:05.748Z,75.44
2023-04-16T10:03:38.694Z,75.19
2023-04-16T10:06:21.063Z,75.18
2023-04-16T10:08:52.895Z,75.81
2023-04-16T10:11:21.269Z,76.13
2023-04-16T10:13:49.321Z,75.86
2023-04-16T10:16:17.620Z,76.02
2023-04-16T10:18:47.289Z,75.47
2023-04-16T10:21:16.255Z,75.73
2023-04-16T10:23:44.246Z,76.22
2023-04-16T10:26:11.447Z,76.05
2023-04-16T10:28:39.042Z,75.91
2023-04-16T10:31:08.592Z,75.96
2023-04-16T10:33:40.107Z,75.69
2023-04-16T10:36:12.909Z,75.66
2023-04-16T10:38:44.746Z,76.01
2023-04-16T10:41:12.412Z,75.92
2023-04-16T10:43:50.874Z,74.81
2023-04-16T10:46:31.781Z,76.44
2023-04-16T10:49:02.550Z,75.65
2023-04-16T10:51:34.941Z,75.20
2023-04-16T10:54:22.876Z,75.35
2023-04-16T10:56:51.376Z,75.82
2023-04-16T10:59:23.192Z,75.48
2023-04-16T11:01:56.686Z,75.73
2023-04-16T11:04:38.264Z,75.05
2023-04-16T11:07:21.063Z,75.40
2023-04-16T11:09:59.953Z,75.32
2023-04-16T11:12:44.891Z,74.76
2023-04-16T11:15:13.724Z,75.35
2023-04-16T11:17:44.337Z,75.60
2023-04-16T11:20:25.933Z,75.37
2023-04-16T11:22:56.023Z,75.86
2023-04-16T11:25:26.092Z,75.83
2023-04-16T11:27:53.891Z,76.26
2023-04-16T11:30:36.397Z,75.52
2023-04-16T11:33:13.592Z,76.25
2023-04-16T11:35:41.204Z,76.29
2023-04-16T11:38:08.176Z,76.16
2023-04-16T11:40:36.287Z,75.65
2023-04-16T11:43:14.747Z,75.40
2023-04-16T11:45:58.060Z,75.20
2023-04-16T11:48:25.189Z,76.62
2023-04-16T11:50:58.912Z,75.56
2023-04-16T11:53:26.049Z,76.31
2023-04-16T11:55:53.072Z,76.10
2023-04-16T11:58:22.020Z,75.90
2023-04-16T12:00:53.296Z,75.97
2023-04-16T12:03:46.016Z,75.27
2023-04-16T12:06:13.299Z,76.16
2023-04-16T12:08:40.399Z,76.25
2023-04-16T12:11:07.384Z,76.29
2023-04-16T12:13:39.780Z,76.47
2023-04-16T12:16:20.498Z,75.61
2023-04-16T12:19:03.971Z,75.98
2023-04-16T12:22:00.755Z,75.21
2023-04-16T12:24:31.983Z,76.33
2023-04-16T12:27:03.010Z,76.24
2023-04-16T12:29:29.981Z,76.54
2023-04-16T12:31:56.980Z,76.58
2023-04-16T12:34:28.937Z,76.58
2023-04-16T12:37:10.995Z,76.33
2023-04-16T12:39:37.957Z,76.45
2023-04-16T12:42:06.306Z,76.63
2023-04-16T12:44:33.242Z,76.24
2023-04-16T12:47:00.182Z,76.44
2023-04-16T12:49:27.112Z,76.54
2023-04-16T12:51:54.063Z,76.34
2023-04-16T12:54:20.977Z,76.21
2023-04-16T12:56:47.942Z,76.44
2023-04-16T12:59:14.854Z,76.00
2023-04-16T13:01:41.810Z,76.73
2023-04-16T13:04:09.342Z,76.57
2023-04-16T13:06:37.728Z,76.10
2023-04-16T13:09:04.793Z,76.44
2023-04-16T13:11:32.762Z,76.45
2023-04-16T13:13:59.678Z,76.73
2023-04-16T13:16:26.695Z,76.43
2023-04-16T13:18:53.695Z,76.52
2023-04-16T13:21:20.696Z,75.97
2023-04-16T13:23:49.845Z,76.25
2023-04-16T13:26:17.434Z,76.08
2023-04-16T13:28:44.357Z,76.12
2023-04-16T13:31:11.354Z,76.55
2023-04-16T13:33:38.472Z,76.22
2023-04-16T13:36:06.260Z,76.40
2023-04-16T13:38:33.200Z,76.38
2023-04-16T13:41:00.120Z,76.22
2023-04-16T13:43:27.169Z,76.21
2023-04-16T13:45:54.130Z,76.21
2023-04-16T13:48:21.176Z,76.26
2023-04-16T13:50:48.107Z,76.40
2023-04-16T13:53:15.072Z,76.36
2023-04-16T13:55:42.846Z,76.55
2023-04-16T13:58:10.880Z,76.22
2023-04-16T14:00:38.152Z,76.38
2023-04-16T14:03:06.830Z,76.23
2023-04-16T14:05:33.934Z,76.35
2023-04-16T14:08:00.923Z,76.19
2023-04-16T14:10:27.867Z,75.96
2023-04-16T14:12:54.859Z,76.22
2023-04-16T14:15:21.968Z,76.53
2023-04-16T14:17:48.924Z,76.32
2023-04-16T14:20:16.159Z,76.40
2023-04-16T14:22:44.096Z,76.10
2023-04-16T14:25:11.128Z,76.13
2023-04-16T14:27:38.253Z,76.38
2023-04-16T14:30:06.868Z,76.16
2023-04-16T14:32:33.947Z,76.65
2023-04-16T14:35:00.901Z,76.37
2023-04-16T14:37:28.072Z,76.51
2023-04-16T14:39:55.130Z,76.62
2023-04-16T14:42:22.412Z,76.37
2023-04-16T14:44:49.490Z,76.51
2023-04-16T14:47:16.491Z,77.12
2023-04-16T14:49:43.454Z,77.09
2023-04-16T14:52:10.456Z,76.93
2023-04-16T14:54:37.495Z,77.01
2023-04-16T14:57:04.598Z,76.63
2023-04-16T14:59:32.288Z,76.55
2023-04-16T15:01:59.453Z,76.31
2023-04-16T15:04:26.574Z,76.96
2023-04-16T15:09:22.327Z,77.05
2023-04-16T15:11:49.297Z,77.35
2023-04-16T15:14:16.671Z,77.15
2023-04-16T15:16:43.919Z,76.83
2023-04-16T15:19:11.062Z,77.53
2023-04-16T15:21:38.144Z,77.13
2023-04-16T15:24:05.389Z,77.30
2023-04-16T15:26:32.349Z,77.37
2023-04-16T15:28:59.272Z,78.05
2023-04-16T15:31:26.520Z,77.29
2023-04-16T15:33:54.449Z,77.47
2023-04-16T15:36:22.701Z,77.49
2023-04-16T15:38:49.638Z,77.06
2023-04-16T15:41:16.617Z,77.57
2023-04-16T15:43:43.605Z,77.41
2023-04-16T15:46:10.785Z,77.55
2023-04-16T15:48:37.809Z,77.54
2023-04-16T15:51:05.351Z,77.36
2023-04-16T15:53:33.657Z,77.25
2023-04-16T15:56:01.052Z,77.68
2023-04-16T15:58:28.079Z,77.48
2023-04-16T16:00:55.015Z,77.90
2023-04-16T16:03:22.193Z,77.63
2023-04-16T16:05:49.342Z,77.42
2023-04-16T16:08:16.584Z,77.60
2023-04-16T16:10:43.591Z,77.23
2023-04-16T16:13:13.147Z,77.34
2023-04-16T16:15:41.260Z,77.72
2023-04-16T16:18:08.641Z,77.51
2023-04-16T16:20:36.577Z,77.25
2023-04-16T16:23:03.892Z,77.31
2023-04-16T16:25:30.872Z,77.58
2023-04-16T16:27:58.810Z,77.57
2023-04-16T16:30:26.354Z,77.87
2023-04-16T16:32:56.412Z,77.08
2023-04-16T16:35:23.576Z,77.21
2023-04-16T16:37:55.368Z,77.48
2023-04-16T16:40:22.601Z,77.05
2023-04-16T16:42:49.672Z,77.43
2023-04-16T16:45:16.854Z,77.55
2023-04-16T16:47:43.857Z,77.61
2023-04-16T16:50:11.544Z,77.61
2023-04-16T16:52:38.953Z,77.60
2023-04-16T16:55:08.640Z,77.22
2023-04-16T16:57:35.713Z,76.97
2023-04-16T17:00:03.561Z,77.46
2023-04-16T17:02:30.674Z,77.53
2023-04-16T17:04:58.880Z,77.21
2023-04-16T17:07:25.876Z,77.52
2023-04-16T17:09:52.941Z,77.46
2023-04-16T17:12:19.856Z,77.13
2023-04-16T17:14:51.146Z,76.97
2023-04-16T17:17:21.549Z,77.33
2023-04-16T17:19:48.504Z,77.33
2023-04-16T17:22:15.542Z,77.07
2023-04-16T17:24:42.457Z,77.44
2023-04-16T17:27:09.440Z,76.92
2023-04-16T17:29:39.144Z,76.88
2023-04-16T17:32:06.199Z,77.26
2023-04-16T17:34:33.181Z,77.14
2023-04-16T17:37:00.249Z,77.44
2023-04-16T17:39:27.219Z,77.48
2023-04-16T17:41:58.257Z,77.45
2023-04-16T17:44:27.300Z,77.43
2023-04-16T17:46:54.306Z,77.47
2023-04-16T17:49:21.312Z,77.07
2023-04-16T17:51:48.890Z,77.05
2023-04-16T17:54:15.877Z,77.08
2023-04-16T17:56:42.844Z,77.23
2023-04-16T17:59:09.847Z,77.21
2023-04-16T18:01:36.835Z,76.88
2023-04-16T18:04:04.403Z,77.37
2023-04-16T18:06:31.440Z,77.48
2023-04-16T18:08:58.441Z,77.33
2023-04-16T18:11:25.352Z,76.87
2023-04-16T18:13:53.741Z,77.26
2023-04-16T18:16:22.421Z,77.10
2023-04-16T18:18:49.658Z,77.17
2023-04-16T18:21:16.608Z,77.27
2023-04-16T18:23:43.545Z,77.21
2023-04-16T18:26:11.365Z,77.23
2023-04-16T18:28:39.634Z,77.11
2023-04-16T18:31:07.733Z,76.88
2023-04-16T18:33:53.402Z,77.24
2023-04-16T18:36:22.911Z,76.88
2023-04-16T18:39:00.162Z,77.33
2023-04-16T18:41:27.885Z,76.91
2023-04-16T18:43:54.914Z,77.21
2023-04-16T18:46:21.989Z,76.84
2023-04-16T18:48:48.993Z,77.01
2023-04-16T18:51:16.680Z,76.96
2023-04-16T18:53:45.385Z,76.90
2023-04-16T18:56:12.838Z,76.98
2023-04-16T18:58:39.866Z,77.23
2023-04-16T19:01:11.035Z,76.91
2023-04-16T19:03:38.696Z,76.91
2023-04-16T19:06:06.573Z,77.20
2023-04-16T19:08:33.797Z,76.90
2023-04-16T19:11:00.901Z,77.04
2023-04-16T19:13:30.169Z,77.24
2023-04-16T19:16:01.496Z,77.15
2023-04-16T19:18:28.615Z,77.21
2023-04-16T19:21:01.776Z,76.68
2023-04-16T19:23:29.038Z,77.21
2023-04-16T19:25:56.883Z,76.98
2023-04-16T19:28:24.927Z,77.27
2023-04-16T19:30:53.105Z,77.12
2023-04-16T19:33:20.633Z,77.12
2023-04-16T19:35:47.994Z,77.29
2023-04-16T19:38:14.945Z,77.02
2023-04-16T19:40:46.647Z,77.12
2023-04-16T19:43:13.956Z,76.96
2023-04-16T19:45:46.036Z,76.87
2023-04-16T19:48:13.239Z,77.11
2023-04-16T19:50:41.712Z,76.88
2023-04-16T19:53:09.242Z,77.15
2023-04-16T19:55:36.505Z,77.13
2023-04-16T19:58:06.327Z,77.27
2023-04-16T20:00:38.828Z,76.79
2023-04-16T20:03:06.204Z,77.22
2023-04-16T20:05:33.353Z,77.24
2023-04-16T20:08:00.319Z,77.24
2023-04-16T20:10:27.757Z,77.08
2023-04-16T20:12:54.714Z,77.27
2023-04-16T20:15:21.719Z,77.52
2023-04-16T20:17:48.715Z,77.27
2023-04-16T20:20:16.328Z,77.26
2023-04-16T20:22:43.729Z,77.35
2023-04-16T20:25:11.316Z,77.08
2023-04-16T20:27:38.302Z,77.30
2023-04-16T20:30:06.446Z,77.47
2023-04-16T20:32:33.527Z,77.32
2023-04-16T20:35:01.870Z,77.39
2023-04-16T20:37:29.110Z,77.47
2023-04-16T20:39:56.197Z,77.17
2023-04-16T20:42:23.388Z,77.14
2023-04-16T20:44:50.623Z,77.52
2023-04-16T20:47:17.739Z,77.19
2023-04-16T20:49:46.099Z,77.49
2023-04-16T20:52:14.142Z,77.42
2023-04-16T20:54:41.460Z,77.22
2023-04-16T20:57:08.690Z,77.20
2023-04-16T20:59:36.870Z,77.36
2023-04-16T21:02:04.026Z,77.41
2023-04-16T21:04:31.382Z,77.92
2023-04-16T21:06:58.429Z,77.78
2023-04-16T21:09:25.369Z,77.32
2023-04-16T21:11:52.313Z,77.94
2023-04-16T21:14:19.282Z,77.54
2023-04-16T21:16:46.231Z,77.40
2023-04-16T21:19:13.324Z,77.39
2023-04-16T21:21:41.655Z,77.59
2023-04-16T21:24:08.658Z,77.88
2023-04-16T21:26:35.773Z,77.71
2023-04-16T21:29:04.003Z,77.52
2023-04-16T21:31:30.953Z,77.88
2023-04-16T21:33:57.900Z,77.44
2023-04-16T21:36:27.349Z,77.39
2023-04-16T21:38:54.351Z,77.81
2023-04-16T21:41:21.300Z,78.01
2023-04-16T21:43:48.247Z,77.53
2023-04-16T21:46:15.292Z,77.62
2023-04-16T21:48:42.217Z,77.84
2023-04-16T21:51:09.978Z,77.51
2023-04-16T21:53:38.709Z,77.49
2023-04-16T21:56:06.750Z,77.78
2023-04-16T21:58:33.666Z,77.83
2023-04-16T22:01:00.735Z,77.70
2023-04-16T22:03:30.265Z,77.76
2023-04-16T22:06:01.162Z,77.44
2023-04-16T22:08:29.893Z,77.84
2023-04-16T22:10:59.135Z,77.78
2023-04-16T22:13:27.187Z,77.66
2023-04-16T22:15:55.830Z,77.68
2023-04-16T22:18:27.085Z,77.75
2023-04-16T22:20:55.050Z,77.66
2023-04-16T22:23:23.254Z,77.94
2023-04-16T22:25:50.405Z,78.01
2023-04-16T22:28:17.315Z,77.89
2023-04-16T22:30:44.247Z,77.68
2023-04-16T22:33:11.349Z,78.02
2023-04-16T22:35:38.372Z,77.94
2023-04-16T22:38:05.585Z,77.97
2023-04-16T22:40:32.488Z,77.96
2023-04-16T22:42:59.396Z,77.86
2023-04-16T22:45:27.225Z,78.01
2023-04-16T22:47:54.327Z,78.01
2023-04-16T22:50:22.456Z,77.92
2023-04-16T22:52:49.461Z,77.91
2023-04-16T22:55:16.704Z,77.94
2023-04-16T22:57:43.651Z,77.61
2023-04-16T23:00:15.756Z,77.84
2023-04-16T23:02:43.369Z,78.10
2023-04-16T23:05:10.950Z,77.76
2023-04-16T23:07:38.063Z,77.72
2023-04-16T23:10:05.802Z,77.96
2023-04-16T23:12:32.708Z,77.95
2023-04-16T23:15:00.516Z,77.52
2023-04-16T23:17:27.982Z,77.61
2023-04-16T23:19:55.415Z,77.74
2023-04-16T23:22:22.355Z,77.64
2023-04-16T23:24:49.286Z,77.92
2023-04-16T23:27:16.202Z,78.04
2023-04-16T23:29:43.198Z,78.06
2023-04-16T23:32:10.134Z,77.63
2023-04-16T23:34:37.058Z,77.83
2023-04-16T23:37:04.063Z,77.96
2023-04-16T23:39:31.024Z,77.74
2023-04-16T23:41:59.864Z,78.06
2023-04-16T23:44:26.780Z,77.95
2023-04-16T23:46:53.833Z,78.09
2023-04-16T23:49:20.777Z,77.97
2023-04-16T23:51:47.681Z,77.64
2023-04-16T23:54:14.771Z,77.79
2023-04-16T23:56:42.025Z,77.74
2023-04-16T23:59:12.481Z,77.74
